Climatologie pour Saint-Brevin les Pins
Jour • Résumé pour juillet 10, 2017 Système :  Métrique    Anglais   Mixte
« - 1 jour
+ 1 jour »
Jour Semaine Mois Année Personnalisé
  Maximum : Minimum : Moyenne :
Température sous abri : 22.2 °C 16.1 °C 18.8 °C
Point de rosée : 18.1 °C 14.4 °C 15.8 °C
Humidité : 96 % 64 % 83 %
Vitesse du vent : 24.1 km/h 0.0 km/h 6.5 km/h
Rafale : 33.8 km/h - -
Direction :- - WSW
Pression : 1015.1 hPa 1011.4 hPa -
Précipitations : 1.5 mm    
Historical Graphs
 
 
Tableau de données pour juillet 10, 2017
Heure Tempé Pt rosée Pression Vent Vitesse Rafale Humidité Taux pluie (/hr) Soleil
00:00 20.2 °C 17.7 °C 1011.4 hPa Calm   4.8 km/h 86 % 0.0 mm 0 W/m2
00:10 20.0 °C 17.8 °C 1011.4 hPa NNW 9.7 km/h 11.3 km/h 87 % 0.0 mm 0 W/m2
00:15 19.8 °C 17.8 °C 1011.4 hPa North 3.2 km/h 11.3 km/h 88 % 0.0 mm 0 W/m2
00:20 19.6 °C 17.5 °C 1011.4 hPa NNE 3.2 km/h 9.7 km/h 88 % 0.0 mm 0 W/m2
00:25 19.4 °C 17.6 °C 1011.4 hPa NNW 3.2 km/h 11.3 km/h 89 % 0.0 mm 0 W/m2
00:30 19.4 °C 17.2 °C 1011.7 hPa North 3.2 km/h 17.7 km/h 87 % 0.0 mm 0 W/m2
00:35 19.6 °C 17.0 °C 1011.7 hPa Calm   17.7 km/h 85 % 0.0 mm 0 W/m2
00:40 19.6 °C 16.8 °C 1011.7 hPa NNE 9.7 km/h 14.5 km/h 84 % 0.0 mm 0 W/m2
00:45 19.4 °C 16.7 °C 1011.7 hPa NE 6.4 km/h 14.5 km/h 84 % 0.0 mm 0 W/m2
00:50 19.4 °C 16.7 °C 1011.7 hPa North 12.9 km/h 17.7 km/h 84 % 0.0 mm 0 W/m2
00:55 19.3 °C 16.6 °C 1011.7 hPa North 3.2 km/h 17.7 km/h 84 % 0.0 mm 0 W/m2
01:00 19.3 °C 16.6 °C 1012.1 hPa North 4.8 km/h 16.1 km/h 84 % 0.0 mm 0 W/m2
01:05 19.3 °C 16.5 °C 1012.1 hPa NNW 9.7 km/h 12.9 km/h 84 % 0.0 mm 0 W/m2
01:10 19.2 °C 16.3 °C 1012.4 hPa NNW 9.7 km/h 12.9 km/h 83 % 0.0 mm 0 W/m2
01:15 19.1 °C 16.2 °C 1012.1 hPa NNE 4.8 km/h 11.3 km/h 83 % 0.0 mm 0 W/m2
01:20 19.1 °C 16.1 °C 1012.1 hPa North 6.4 km/h 14.5 km/h 83 % 0.0 mm 0 W/m2
01:25 19.0 °C 16.0 °C 1012.1 hPa North 4.8 km/h 14.5 km/h 83 % 0.0 mm 0 W/m2
01:30 18.9 °C 16.0 °C 1012.1 hPa ENE 6.4 km/h 14.5 km/h 83 % 0.0 mm 0 W/m2
01:35 18.9 °C 15.9 °C 1012.1 hPa North 3.2 km/h 9.7 km/h 83 % 0.0 mm 0 W/m2
01:40 18.8 °C 15.8 °C 1012.1 hPa NNE 3.2 km/h 9.7 km/h 83 % 0.0 mm 0 W/m2
01:45 18.7 °C 15.8 °C 1012.1 hPa NNE 6.4 km/h 9.7 km/h 83 % 0.0 mm 0 W/m2
01:50 18.6 °C 15.7 °C 1012.1 hPa NNE 1.6 km/h 8.0 km/h 83 % 0.0 mm 0 W/m2
01:55 18.6 °C 15.8 °C 1012.1 hPa Calm   8.0 km/h 84 % 0.0 mm 0 W/m2
02:00 18.6 °C 15.8 °C 1012.1 hPa NNW 1.6 km/h 8.0 km/h 84 % 0.0 mm 0 W/m2
02:05 18.6 °C 15.8 °C 1012.1 hPa Calm   6.4 km/h 84 % 0.0 mm 0 W/m2
02:10 18.6 °C 15.8 °C 1012.1 hPa Calm   6.4 km/h 84 % 0.0 mm 0 W/m2
02:15 18.7 °C 15.9 °C 1011.7 hPa Calm   4.8 km/h 84 % 0.0 mm 0 W/m2
02:20 18.7 °C 15.9 °C 1012.1 hPa NNW 3.2 km/h 6.4 km/h 84 % 0.0 mm 0 W/m2
02:25 18.7 °C 15.7 °C 1012.1 hPa NNW 8.0 km/h 9.7 km/h 83 % 0.0 mm 0 W/m2
02:30 18.7 °C 15.8 °C 1012.1 hPa WNW 3.2 km/h 9.7 km/h 83 % 0.0 mm 0 W/m2
02:35 18.7 °C 15.7 °C 1012.1 hPa West 6.4 km/h 12.9 km/h 83 % 0.0 mm 0 W/m2
02:40 18.7 °C 15.7 °C 1012.1 hPa WNW 4.8 km/h 12.9 km/h 83 % 0.0 mm 0 W/m2
02:45 18.7 °C 15.9 °C 1012.1 hPa NW 1.6 km/h 12.9 km/h 84 % 0.0 mm 0 W/m2
02:50 18.6 °C 15.9 °C 1012.1 hPa Calm   11.3 km/h 84 % 0.0 mm 0 W/m2
02:55 18.6 °C 15.8 °C 1012.1 hPa North 4.8 km/h 11.3 km/h 84 % 0.0 mm 0 W/m2
03:00 18.6 °C 15.8 °C 1012.1 hPa NNE 8.0 km/h 9.7 km/h 84 % 0.0 mm 0 W/m2
03:05 18.5 °C 15.7 °C 1012.1 hPa NNW 6.4 km/h 9.7 km/h 84 % 0.0 mm 0 W/m2
03:10 18.5 °C 15.7 °C 1012.1 hPa North 3.2 km/h 9.7 km/h 84 % 0.0 mm 0 W/m2
03:15 18.5 °C 15.7 °C 1012.1 hPa North 6.4 km/h 11.3 km/h 84 % 0.0 mm 0 W/m2
03:20 18.5 °C 15.7 °C 1011.7 hPa NNE 8.0 km/h 11.3 km/h 84 % 0.0 mm 0 W/m2
03:25 18.6 °C 16.0 °C 1011.7 hPa North 3.2 km/h 8.0 km/h 85 % 0.0 mm 0 W/m2
03:30 18.6 °C 15.8 °C 1011.7 hPa North 9.7 km/h 9.7 km/h 84 % 0.0 mm 0 W/m2
03:35 18.6 °C 15.8 °C 1011.7 hPa North 3.2 km/h 11.3 km/h 84 % 0.0 mm 0 W/m2
03:40 18.4 °C 15.7 °C 1011.7 hPa NE 1.6 km/h 11.3 km/h 84 % 0.0 mm 0 W/m2
03:45 18.5 °C 15.9 °C 1011.7 hPa NNE 8.0 km/h 8.0 km/h 85 % 0.0 mm 0 W/m2
03:50 18.5 °C 15.9 °C 1011.4 hPa NE 6.4 km/h 8.0 km/h 85 % 0.0 mm 0 W/m2
03:55 18.5 °C 15.9 °C 1011.4 hPa NNW 1.6 km/h 11.3 km/h 85 % 0.0 mm 0 W/m2
04:00 18.5 °C 15.9 °C 1011.4 hPa Calm   11.3 km/h 85 % 0.0 mm 0 W/m2
04:05 18.4 °C 15.9 °C 1011.4 hPa North 1.6 km/h 6.4 km/h 85 % 0.0 mm 0 W/m2
04:10 18.4 °C 15.9 °C 1011.4 hPa NE 1.6 km/h 6.4 km/h 85 % 0.0 mm 0 W/m2
04:15 18.4 °C 15.9 °C 1011.7 hPa NNE 1.6 km/h 6.4 km/h 85 % 0.0 mm 0 W/m2
04:25 18.3 °C 15.8 °C 1011.7 hPa North 3.2 km/h 8.0 km/h 85 % 0.0 mm 0 W/m2
04:30 18.3 °C 15.9 °C 1011.7 hPa NNE 1.6 km/h 8.0 km/h 86 % 0.0 mm 0 W/m2
04:35 18.3 °C 15.9 °C 1011.7 hPa NNE 3.2 km/h 6.4 km/h 86 % 0.0 mm 0 W/m2
04:40 18.3 °C 15.9 °C 1011.7 hPa ENE 4.8 km/h 8.0 km/h 86 % 0.0 mm 0 W/m2
04:45 18.3 °C 15.9 °C 1011.7 hPa ENE 1.6 km/h 8.0 km/h 86 % 0.0 mm 0 W/m2
04:50 18.3 °C 15.9 °C 1011.7 hPa Calm   6.4 km/h 86 % 0.0 mm 0 W/m2
04:55 18.3 °C 15.9 °C 1011.7 hPa Calm   6.4 km/h 86 % 0.0 mm 0 W/m2
05:00 18.3 °C 15.9 °C 1011.7 hPa NNW 1.6 km/h 6.4 km/h 86 % 0.0 mm 0 W/m2
05:05 18.3 °C 15.9 °C 1011.7 hPa North 3.2 km/h 8.0 km/h 86 % 0.0 mm 0 W/m2
05:10 18.3 °C 16.1 °C 1011.7 hPa Calm   8.0 km/h 87 % 0.0 mm 0 W/m2
05:20 17.9 °C 16.1 °C 1012.1 hPa Calm   4.8 km/h 89 % 0.3 mm 0 W/m2
05:25 17.8 °C 16.3 °C 1012.1 hPa WNW 4.8 km/h 8.0 km/h 91 % 0.3 mm 0 W/m2
05:30 17.7 °C 16.4 °C 1012.1 hPa Calm   8.0 km/h 92 % 0.5 mm 0 W/m2
05:35 17.6 °C 16.4 °C 1012.1 hPa NNW 3.2 km/h 6.4 km/h 93 % 0.5 mm 0 W/m2
05:40 17.5 °C 16.4 °C 1012.1 hPa NNW 3.2 km/h 6.4 km/h 93 % 0.5 mm 0 W/m2
05:45 17.4 °C 16.5 °C 1012.1 hPa NNW 1.6 km/h 6.4 km/h 94 % 0.5 mm 0 W/m2
05:50 17.3 °C 16.4 °C 1012.1 hPa North 1.6 km/h 6.4 km/h 94 % 0.5 mm 0 W/m2
05:55 17.4 °C 16.4 °C 1012.1 hPa North 3.2 km/h 6.4 km/h 94 % 0.5 mm 0 W/m2
06:00 17.4 °C 16.4 °C 1012.1 hPa North 4.8 km/h 8.0 km/h 94 % 0.5 mm 0 W/m2
06:05 17.3 °C 16.4 °C 1012.1 hPa NNE 8.0 km/h 11.3 km/h 94 % 0.5 mm 0 W/m2
06:10 17.2 °C 16.4 °C 1012.1 hPa Calm   11.3 km/h 95 % 0.5 mm 0 W/m2
06:15 17.2 °C 16.4 °C 1012.4 hPa Calm   11.3 km/h 95 % 0.5 mm 0 W/m2
06:20 17.1 °C 16.3 °C 1012.4 hPa North 6.4 km/h 9.7 km/h 95 % 0.5 mm 0 W/m2
06:30 16.9 °C 16.1 °C 1012.4 hPa North 8.0 km/h 12.9 km/h 95 % 0.5 mm 0 W/m2
06:35 16.7 °C 15.9 °C 1012.4 hPa NW 9.7 km/h 12.9 km/h 95 % 0.3 mm 0 W/m2
06:40 16.6 °C 15.8 °C 1012.4 hPa NNW 1.6 km/h 14.5 km/h 95 % 0.3 mm 0 W/m2
06:45 16.5 °C 15.7 °C 1012.4 hPa Calm   14.5 km/h 95 % 0.3 mm 0 W/m2
06:50 16.4 °C 15.6 °C 1012.4 hPa NNW 1.6 km/h 12.9 km/h 95 % 0.3 mm 0 W/m2
06:55 16.3 °C 15.5 °C 1012.4 hPa NNW 1.6 km/h 12.9 km/h 95 % 0.5 mm 0 W/m2
07:00 16.3 °C 15.7 °C 1012.4 hPa WNW 4.8 km/h 12.9 km/h 96 % 0.5 mm 7 W/m2
07:05 16.3 °C 15.6 °C 1012.4 hPa North 3.2 km/h 9.7 km/h 96 % 0.5 mm 5 W/m2
07:10 16.3 °C 15.7 °C 1012.4 hPa NNW 3.2 km/h 8.0 km/h 96 % 0.5 mm 5 W/m2
07:15 16.2 °C 15.6 °C 1012.4 hPa WNW 3.2 km/h 8.0 km/h 96 % 0.5 mm 7 W/m2
07:20 16.2 °C 15.5 °C 1012.4 hPa Calm   6.4 km/h 96 % 0.5 mm 7 W/m2
07:25 16.2 °C 15.5 °C 1012.4 hPa NW 3.2 km/h 4.8 km/h 96 % 0.5 mm 7 W/m2
07:30 16.2 °C 15.5 °C 1012.4 hPa NNW 4.8 km/h 11.3 km/h 96 % 0.3 mm 7 W/m2
07:35 16.2 °C 15.5 °C 1012.8 hPa North 1.6 km/h 11.3 km/h 96 % 0.3 mm 11 W/m2
07:40 16.1 °C 15.5 °C 1012.8 hPa Calm   6.4 km/h 96 % 0.3 mm 14 W/m2
07:50 16.2 °C 15.6 °C 1012.8 hPa NW 1.6 km/h 6.4 km/h 96 % 0.3 mm 25 W/m2
07:55 16.3 °C 15.6 °C 1012.8 hPa WNW 1.6 km/h 6.4 km/h 96 % 0.0 mm 33 W/m2
08:00 16.3 °C 15.7 °C 1012.8 hPa Calm   6.4 km/h 96 % 0.0 mm 49 W/m2
08:05 16.5 °C 15.9 °C 1012.8 hPa WNW 1.6 km/h 6.4 km/h 96 % 0.0 mm 62 W/m2
08:15 16.7 °C 16.0 °C 1012.8 hPa Calm   6.4 km/h 96 % 0.0 mm 90 W/m2
08:20 16.7 °C 16.1 °C 1012.8 hPa Calm   4.8 km/h 96 % 0.0 mm 63 W/m2
08:25 16.9 °C 16.2 °C 1012.8 hPa NW 1.6 km/h 4.8 km/h 96 % 0.0 mm 51 W/m2
08:30 16.8 °C 16.2 °C 1012.8 hPa NW 1.6 km/h 6.4 km/h 96 % 0.0 mm 40 W/m2
08:35 16.6 °C 15.8 °C 1012.8 hPa NW 1.6 km/h 6.4 km/h 95 % 0.0 mm 26 W/m2
08:40 16.6 °C 15.8 °C 1012.8 hPa Calm   6.4 km/h 95 % 0.0 mm 26 W/m2
08:45 16.7 °C 15.9 °C 1013.1 hPa Calm   3.2 km/h 95 % 0.0 mm 33 W/m2
08:50 16.7 °C 15.9 °C 1013.1 hPa Calm   3.2 km/h 95 % 0.5 mm 40 W/m2
08:55 16.7 °C 16.0 °C 1013.1 hPa Calm   3.2 km/h 96 % 0.5 mm 40 W/m2
09:00 16.7 °C 15.9 °C 1013.1 hPa Calm   6.4 km/h 95 % 0.5 mm 53 W/m2
09:05 16.7 °C 16.1 °C 1013.1 hPa Calm   6.4 km/h 96 % 0.5 mm 51 W/m2
09:10 16.7 °C 15.9 °C 1013.1 hPa Calm   4.8 km/h 95 % 0.5 mm 37 W/m2
09:15 16.8 °C 16.1 °C 1013.1 hPa Calm   1.6 km/h 96 % 0.5 mm 33 W/m2
09:20 16.7 °C 15.9 °C 1013.1 hPa Calm   3.2 km/h 95 % 0.5 mm 26 W/m2
09:25 16.8 °C 16.1 °C 1013.1 hPa Calm   3.2 km/h 96 % 0.5 mm 33 W/m2
09:30 16.7 °C 16.1 °C 1013.1 hPa NW 1.6 km/h 4.8 km/h 96 % 0.5 mm 40 W/m2
09:35 16.6 °C 16.0 °C 1013.1 hPa NW 3.2 km/h 9.7 km/h 96 % 0.5 mm 90 W/m2
09:40 16.7 °C 16.1 °C 1013.4 hPa Calm   9.7 km/h 96 % 0.5 mm 69 W/m2
09:45 16.9 °C 16.2 °C 1013.4 hPa NW 3.2 km/h 6.4 km/h 96 % 0.5 mm 72 W/m2
09:50 17.0 °C 16.2 °C 1013.1 hPa NW 3.2 km/h 6.4 km/h 95 % 0.3 mm 127 W/m2
09:55 17.1 °C 16.4 °C 1013.1 hPa Calm   8.0 km/h 96 % 0.3 mm 174 W/m2
10:00 17.4 °C 16.7 °C 1013.1 hPa WNW 1.6 km/h 8.0 km/h 96 % 0.0 mm 202 W/m2
10:05 17.6 °C 16.7 °C 1013.4 hPa WNW 3.2 km/h 8.0 km/h 95 % 0.0 mm 199 W/m2
10:10 17.5 °C 16.5 °C 1013.4 hPa Calm   9.7 km/h 94 % 0.0 mm 127 W/m2
10:15 17.5 °C 16.5 °C 1013.4 hPa North 4.8 km/h 9.7 km/h 94 % 0.0 mm 125 W/m2
10:20 17.3 °C 16.4 °C 1013.4 hPa NW 6.4 km/h 9.7 km/h 94 % 0.0 mm 132 W/m2
10:25 17.4 °C 16.5 °C 1013.4 hPa West 3.2 km/h 9.7 km/h 94 % 0.0 mm 149 W/m2
10:30 17.4 °C 16.2 °C 1013.4 hPa Calm   8.0 km/h 93 % 0.0 mm 84 W/m2
10:35 17.3 °C 16.2 °C 1013.4 hPa Calm   9.7 km/h 93 % 0.0 mm 65 W/m2
10:40 17.3 °C 16.1 °C 1013.4 hPa NNW 1.6 km/h 9.7 km/h 93 % 0.0 mm 125 W/m2
10:45 17.3 °C 16.1 °C 1013.4 hPa WNW 8.0 km/h 8.0 km/h 93 % 0.0 mm 200 W/m2
10:50 17.4 °C 16.5 °C 1013.4 hPa Calm   8.0 km/h 94 % 0.0 mm 225 W/m2
10:55 17.8 °C 16.8 °C 1013.4 hPa NW 9.7 km/h 9.7 km/h 94 % 0.0 mm 236 W/m2
11:00 17.7 °C 16.4 °C 1013.4 hPa West 3.2 km/h 9.7 km/h 92 % 0.0 mm 156 W/m2
11:05 17.5 °C 16.0 °C 1013.4 hPa NW 4.8 km/h 9.7 km/h 91 % 0.0 mm 109 W/m2
11:10 17.6 °C 16.2 °C 1013.4 hPa WNW 3.2 km/h 9.7 km/h 92 % 0.0 mm 104 W/m2
11:15 17.4 °C 16.1 °C 1013.8 hPa WNW 4.8 km/h 14.5 km/h 92 % 0.0 mm 37 W/m2
11:20 17.2 °C 15.9 °C 1013.8 hPa NW 6.4 km/h 16.1 km/h 92 % 0.0 mm 56 W/m2
11:25 16.9 °C 15.6 °C 1013.8 hPa WNW 4.8 km/h 16.1 km/h 92 % 0.0 mm 111 W/m2
11:30 16.9 °C 15.6 °C 1013.8 hPa West 4.8 km/h 12.9 km/h 92 % 0.0 mm 153 W/m2
11:35 16.9 °C 15.8 °C 1013.8 hPa WNW 6.4 km/h 16.1 km/h 93 % 0.0 mm 195 W/m2
11:40 17.2 °C 15.9 °C 1013.8 hPa NNW 6.4 km/h 16.1 km/h 92 % 0.0 mm 214 W/m2
11:45 17.4 °C 16.3 °C 1013.8 hPa WNW 4.8 km/h 11.3 km/h 93 % 0.0 mm 392 W/m2
11:50 17.8 °C 16.3 °C 1013.8 hPa WNW 4.8 km/h 11.3 km/h 91 % 0.0 mm 308 W/m2
11:55 18.1 °C 16.6 °C 1013.8 hPa WNW 4.8 km/h 11.3 km/h 91 % 0.0 mm 295 W/m2
12:00 17.8 °C 15.8 °C 1013.8 hPa WNW 8.0 km/h 11.3 km/h 88 % 0.0 mm 329 W/m2
12:05 18.0 °C 16.3 °C 1013.8 hPa WNW 3.2 km/h 11.3 km/h 90 % 0.0 mm 547 W/m2
12:10 18.7 °C 16.7 °C 1013.8 hPa NNW 4.8 km/h 11.3 km/h 88 % 0.0 mm 545 W/m2
12:15 19.4 °C 17.0 °C 1013.8 hPa North 3.2 km/h 11.3 km/h 86 % 0.0 mm 496 W/m2
12:20 19.5 °C 16.5 °C 1013.8 hPa North 3.2 km/h 12.9 km/h 83 % 0.0 mm 592 W/m2
12:25 20.2 °C 18.1 °C 1013.8 hPa NW 3.2 km/h 12.9 km/h 88 % 0.0 mm 1062 W/m2
12:30 20.7 °C 17.3 °C 1013.8 hPa WNW 1.6 km/h 14.5 km/h 81 % 0.0 mm 1109 W/m2
12:35 20.2 °C 16.4 °C 1013.8 hPa WSW 6.4 km/h 14.5 km/h 79 % 0.0 mm 657 W/m2
12:40 20.4 °C 16.6 °C 1013.4 hPa WNW 4.8 km/h 12.9 km/h 79 % 0.0 mm 828 W/m2
12:45 20.2 °C 16.4 °C 1013.4 hPa NW 3.2 km/h 12.9 km/h 79 % 0.0 mm 234 W/m2
12:50 20.3 °C 16.3 °C 1013.4 hPa WSW 8.0 km/h 14.5 km/h 78 % 0.0 mm 749 W/m2
12:55 20.7 °C 16.7 °C 1013.4 hPa NW 8.0 km/h 17.7 km/h 78 % 0.0 mm 1116 W/m2
13:00 20.6 °C 16.4 °C 1013.4 hPa WSW 8.0 km/h 17.7 km/h 77 % 0.0 mm 749 W/m2
13:05 20.6 °C 16.4 °C 1013.8 hPa West 6.4 km/h 17.7 km/h 77 % 0.0 mm 526 W/m2
13:10 19.7 °C 15.8 °C 1013.8 hPa SW 3.2 km/h 17.7 km/h 78 % 0.0 mm 415 W/m2
13:15 20.6 °C 16.6 °C 1013.8 hPa SW 1.6 km/h 16.1 km/h 78 % 0.0 mm 997 W/m2
13:20 20.9 °C 16.3 °C 1013.8 hPa WNW 8.0 km/h 19.3 km/h 75 % 0.0 mm 900 W/m2
13:25 20.7 °C 16.1 °C 1013.8 hPa West 17.7 km/h 22.5 km/h 75 % 0.0 mm 895 W/m2
13:30 20.6 °C 15.5 °C 1013.8 hPa WSW 6.4 km/h 22.5 km/h 73 % 0.0 mm 900 W/m2
13:35 20.6 °C 15.6 °C 1013.8 hPa SW 8.0 km/h 25.7 km/h 73 % 0.0 mm 889 W/m2
13:40 20.9 °C 15.5 °C 1013.8 hPa West 14.5 km/h 25.7 km/h 71 % 0.0 mm 898 W/m2
13:45 21.3 °C 16.3 °C 1013.4 hPa SW 6.4 km/h 24.1 km/h 73 % 0.0 mm 902 W/m2
13:50 21.9 °C 15.8 °C 1013.4 hPa SW 6.4 km/h 24.1 km/h 68 % 0.0 mm 905 W/m2
13:55 21.3 °C 14.4 °C 1013.8 hPa WSW 11.3 km/h 24.1 km/h 65 % 0.0 mm 900 W/m2
14:00 21.2 °C 15.1 °C 1013.8 hPa WSW 12.9 km/h 24.1 km/h 68 % 0.0 mm 902 W/m2
14:05 21.2 °C 14.6 °C 1013.8 hPa WNW 11.3 km/h 22.5 km/h 66 % 0.0 mm 900 W/m2
14:10 20.8 °C 14.7 °C 1013.8 hPa WSW 9.7 km/h 22.5 km/h 68 % 0.0 mm 895 W/m2
14:15 21.5 °C 14.9 °C 1013.4 hPa West 14.5 km/h 22.5 km/h 66 % 0.0 mm 896 W/m2
14:20 21.3 °C 14.4 °C 1013.4 hPa SW 12.9 km/h 20.9 km/h 65 % 0.0 mm 896 W/m2
14:25 21.8 °C 14.7 °C 1013.8 hPa West 8.0 km/h 20.9 km/h 64 % 0.0 mm 895 W/m2
14:30 21.7 °C 14.9 °C 1013.8 hPa NW 9.7 km/h 22.5 km/h 65 % 0.0 mm 893 W/m2
14:35 21.2 °C 14.4 °C 1013.8 hPa West 11.3 km/h 27.4 km/h 65 % 0.0 mm 888 W/m2
14:40 21.5 °C 15.3 °C 1013.8 hPa SSW 12.9 km/h 27.4 km/h 68 % 0.0 mm 884 W/m2
14:45 21.6 °C 15.4 °C 1013.8 hPa SW 16.1 km/h 22.5 km/h 68 % 0.0 mm 882 W/m2
14:50 21.7 °C 15.3 °C 1013.8 hPa WNW 19.3 km/h 25.7 km/h 67 % 0.0 mm 877 W/m2
14:55 21.2 °C 15.1 °C 1013.8 hPa SW 24.1 km/h 29.0 km/h 68 % 0.0 mm 877 W/m2
15:00 21.2 °C 15.3 °C 1013.8 hPa WNW 14.5 km/h 29.0 km/h 69 % 0.0 mm 870 W/m2
15:05 21.9 °C 15.9 °C 1013.8 hPa WNW 19.3 km/h 24.1 km/h 69 % 0.0 mm 867 W/m2
15:10 21.7 °C 15.3 °C 1013.4 hPa West 11.3 km/h 25.7 km/h 67 % 0.0 mm 865 W/m2
15:15 21.8 °C 15.9 °C 1013.4 hPa WSW 6.4 km/h 25.7 km/h 69 % 0.0 mm 860 W/m2
15:20 21.6 °C 14.9 °C 1013.8 hPa WNW 17.7 km/h 29.0 km/h 66 % 0.0 mm 856 W/m2
15:25 21.3 °C 14.9 °C 1013.8 hPa WNW 14.5 km/h 30.6 km/h 67 % 0.0 mm 849 W/m2
15:30 21.8 °C 15.0 °C 1013.8 hPa WSW 11.3 km/h 30.6 km/h 65 % 0.0 mm 844 W/m2
15:35 21.7 °C 15.6 °C 1013.8 hPa West 17.7 km/h 27.4 km/h 68 % 0.0 mm 838 W/m2
15:40 21.3 °C 15.0 °C 1013.8 hPa West 16.1 km/h 27.4 km/h 67 % 0.0 mm 831 W/m2
15:45 21.7 °C 15.6 °C 1013.4 hPa WSW 14.5 km/h 25.7 km/h 68 % 0.0 mm 823 W/m2
15:50 21.7 °C 15.8 °C 1013.4 hPa WSW 4.8 km/h 32.2 km/h 69 % 0.0 mm 814 W/m2
16:00 21.7 °C 16.0 °C 1013.4 hPa West 14.5 km/h 30.6 km/h 70 % 0.0 mm 802 W/m2
16:05 22.2 °C 15.5 °C 1013.8 hPa NW 16.1 km/h 27.4 km/h 66 % 0.0 mm 796 W/m2
16:10 21.6 °C 15.4 °C 1013.4 hPa WSW 11.3 km/h 27.4 km/h 68 % 0.0 mm 788 W/m2
16:15 22.1 °C 16.1 °C 1013.8 hPa West 6.4 km/h 25.7 km/h 69 % 0.0 mm 782 W/m2
16:20 21.9 °C 15.9 °C 1013.4 hPa West 14.5 km/h 25.7 km/h 69 % 0.0 mm 772 W/m2
16:25 21.7 °C 16.2 °C 1013.4 hPa WSW 20.9 km/h 24.1 km/h 71 % 0.0 mm 761 W/m2
16:30 21.3 °C 15.4 °C 1013.8 hPa WNW 16.1 km/h 32.2 km/h 69 % 0.0 mm 758 W/m2
16:35 21.3 °C 16.1 °C 1013.8 hPa WSW 8.0 km/h 32.2 km/h 72 % 0.0 mm 740 W/m2
16:40 21.4 °C 16.0 °C 1013.4 hPa WSW 12.9 km/h 30.6 km/h 71 % 0.0 mm 735 W/m2
16:45 21.6 °C 15.6 °C 1013.8 hPa West 12.9 km/h 30.6 km/h 69 % 0.0 mm 724 W/m2
16:50 21.2 °C 15.8 °C 1013.4 hPa WNW 12.9 km/h 29.0 km/h 71 % 0.0 mm 715 W/m2
16:55 21.2 °C 16.2 °C 1013.4 hPa West 20.9 km/h 30.6 km/h 73 % 0.0 mm 707 W/m2
17:00 21.7 °C 16.6 °C 1013.4 hPa WNW 8.0 km/h 30.6 km/h 73 % 0.0 mm 698 W/m2
17:05 21.7 °C 16.0 °C 1013.8 hPa West 12.9 km/h 29.0 km/h 70 % 0.0 mm 677 W/m2
17:10 21.2 °C 15.9 °C 1013.8 hPa West 19.3 km/h 25.7 km/h 72 % 0.0 mm 568 W/m2
17:15 21.0 °C 16.0 °C 1013.8 hPa West 9.7 km/h 29.0 km/h 73 % 0.0 mm 689 W/m2
17:20 21.1 °C 15.8 °C 1013.8 hPa West 17.7 km/h 30.6 km/h 72 % 0.0 mm 675 W/m2
17:25 21.1 °C 16.1 °C 1013.8 hPa West 14.5 km/h 30.6 km/h 73 % 0.0 mm 564 W/m2
17:30 21.2 °C 16.1 °C 1013.4 hPa NW 20.9 km/h 33.8 km/h 73 % 0.0 mm 517 W/m2
17:35 20.8 °C 15.8 °C 1013.8 hPa WNW 12.9 km/h 33.8 km/h 73 % 0.0 mm 571 W/m2
17:40 21.1 °C 16.3 °C 1013.8 hPa NW 17.7 km/h 27.4 km/h 74 % 0.0 mm 520 W/m2
17:45 20.8 °C 15.8 °C 1013.8 hPa West 8.0 km/h 25.7 km/h 73 % 0.0 mm 512 W/m2
17:50 21.4 °C 16.1 °C 1013.8 hPa West 20.9 km/h 25.7 km/h 72 % 0.0 mm 480 W/m2
17:55 21.0 °C 15.8 °C 1013.8 hPa WNW 16.1 km/h 24.1 km/h 72 % 0.0 mm 517 W/m2
18:00 20.8 °C 15.8 °C 1013.8 hPa West 16.1 km/h 25.7 km/h 73 % 0.0 mm 492 W/m2
18:10 20.8 °C 15.8 °C 1013.8 hPa West 17.7 km/h 27.4 km/h 73 % 0.0 mm 434 W/m2
18:15 20.9 °C 15.9 °C 1013.8 hPa West 11.3 km/h 27.4 km/h 73 % 0.0 mm 441 W/m2
18:20 20.5 °C 15.7 °C 1013.8 hPa WNW 11.3 km/h 27.4 km/h 74 % 0.0 mm 278 W/m2
18:25 20.1 °C 15.5 °C 1013.8 hPa West 17.7 km/h 29.0 km/h 75 % 0.0 mm 250 W/m2
18:30 19.9 °C 15.6 °C 1013.8 hPa West 14.5 km/h 29.0 km/h 76 % 0.0 mm 294 W/m2
18:35 19.8 °C 15.7 °C 1013.8 hPa West 11.3 km/h 27.4 km/h 77 % 0.0 mm 369 W/m2
18:40 20.2 °C 16.1 °C 1013.8 hPa West 20.9 km/h 27.4 km/h 77 % 0.0 mm 276 W/m2
18:45 20.1 °C 16.0 °C 1013.8 hPa NW 9.7 km/h 27.4 km/h 77 % 0.0 mm 225 W/m2
18:50 19.9 °C 15.8 °C 1013.8 hPa West 8.0 km/h 22.5 km/h 77 % 0.0 mm 225 W/m2
18:55 20.1 °C 15.9 °C 1013.8 hPa WSW 3.2 km/h 22.5 km/h 77 % 0.0 mm 218 W/m2
19:00 20.1 °C 15.9 °C 1013.8 hPa WSW 14.5 km/h 25.7 km/h 77 % 0.0 mm 251 W/m2
19:05 20.0 °C 16.0 °C 1013.8 hPa West 12.9 km/h 25.7 km/h 78 % 0.0 mm 236 W/m2
19:10 19.8 °C 15.9 °C 1013.8 hPa WSW 3.2 km/h 22.5 km/h 78 % 0.0 mm 220 W/m2
19:15 19.8 °C 15.8 °C 1013.8 hPa West 4.8 km/h 27.4 km/h 78 % 0.0 mm 294 W/m2
19:20 20.2 °C 16.2 °C 1013.8 hPa West 16.1 km/h 27.4 km/h 78 % 0.0 mm 251 W/m2
19:25 20.4 °C 16.4 °C 1013.8 hPa NW 4.8 km/h 27.4 km/h 78 % 0.0 mm 323 W/m2
19:30 20.1 °C 16.0 °C 1013.8 hPa West 11.3 km/h 27.4 km/h 77 % 0.0 mm 316 W/m2
19:35 20.2 °C 16.0 °C 1013.8 hPa NW 9.7 km/h 27.4 km/h 77 % 0.0 mm 357 W/m2
19:40 20.1 °C 16.0 °C 1013.8 hPa West 8.0 km/h 20.9 km/h 77 % 0.0 mm 283 W/m2
19:45 19.9 °C 15.8 °C 1013.8 hPa WNW 11.3 km/h 22.5 km/h 77 % 0.0 mm 127 W/m2
19:50 19.5 °C 15.8 °C 1013.8 hPa WNW 6.4 km/h 24.1 km/h 79 % 0.0 mm 146 W/m2
19:55 19.4 °C 15.8 °C 1013.8 hPa WNW 6.4 km/h 24.1 km/h 80 % 0.0 mm 144 W/m2
20:00 19.5 °C 16.0 °C 1013.8 hPa West 14.5 km/h 24.1 km/h 80 % 0.0 mm 142 W/m2
20:05 19.2 °C 15.9 °C 1013.8 hPa NW 6.4 km/h 25.7 km/h 81 % 0.0 mm 90 W/m2
20:10 19.0 °C 15.7 °C 1014.1 hPa West 3.2 km/h 25.7 km/h 81 % 0.0 mm 83 W/m2
20:15 18.9 °C 15.7 °C 1014.1 hPa West 9.7 km/h 25.7 km/h 82 % 0.0 mm 74 W/m2
20:20 18.8 °C 15.9 °C 1013.8 hPa NNW 1.6 km/h 24.1 km/h 83 % 0.0 mm 70 W/m2
20:25 18.7 °C 15.8 °C 1013.8 hPa West 1.6 km/h 17.7 km/h 83 % 0.0 mm 63 W/m2
20:30 18.7 °C 15.7 °C 1014.1 hPa West 6.4 km/h 17.7 km/h 83 % 0.0 mm 56 W/m2
20:35 18.7 °C 15.9 °C 1014.1 hPa WNW 8.0 km/h 17.7 km/h 84 % 0.0 mm 54 W/m2
20:40 18.7 °C 15.9 °C 1014.1 hPa NW 4.8 km/h 25.7 km/h 84 % 0.0 mm 60 W/m2
20:45 18.7 °C 15.9 °C 1014.1 hPa WNW 8.0 km/h 25.7 km/h 84 % 0.0 mm 58 W/m2
20:50 18.7 °C 15.8 °C 1014.1 hPa WNW 14.5 km/h 22.5 km/h 83 % 0.0 mm 53 W/m2
20:55 18.7 °C 15.5 °C 1014.1 hPa Calm   17.7 km/h 82 % 0.0 mm 49 W/m2
21:00 18.6 °C 15.5 °C 1014.1 hPa WNW 3.2 km/h 17.7 km/h 82 % 0.0 mm 46 W/m2
21:10 18.4 °C 15.3 °C 1014.1 hPa WNW 3.2 km/h 14.5 km/h 82 % 0.0 mm 39 W/m2
21:15 18.3 °C 15.2 °C 1014.1 hPa West 3.2 km/h 16.1 km/h 82 % 0.0 mm 33 W/m2
21:20 18.2 °C 14.9 °C 1014.1 hPa West 6.4 km/h 22.5 km/h 81 % 0.0 mm 30 W/m2
21:25 18.2 °C 14.9 °C 1014.1 hPa NNW 14.5 km/h 22.5 km/h 81 % 0.0 mm 26 W/m2
21:30 18.1 °C 15.0 °C 1014.1 hPa WNW 4.8 km/h 17.7 km/h 82 % 0.0 mm 25 W/m2
21:35 18.0 °C 14.9 °C 1014.1 hPa WNW 6.4 km/h 17.7 km/h 82 % 0.0 mm 21 W/m2
21:40 17.9 °C 14.8 °C 1014.4 hPa WNW 12.9 km/h 17.7 km/h 82 % 0.0 mm 18 W/m2
21:45 17.9 °C 15.0 °C 1014.4 hPa WNW 11.3 km/h 17.7 km/h 83 % 0.0 mm 11 W/m2
21:50 17.8 °C 14.9 °C 1014.4 hPa WNW 8.0 km/h 17.7 km/h 83 % 0.0 mm 7 W/m2
21:55 17.8 °C 14.9 °C 1014.4 hPa WNW 11.3 km/h 17.7 km/h 83 % 0.0 mm 0 W/m2
22:00 17.7 °C 14.7 °C 1014.4 hPa NW 11.3 km/h 17.7 km/h 83 % 0.0 mm 0 W/m2
22:05 17.6 °C 14.9 °C 1014.4 hPa NW 6.4 km/h 17.7 km/h 84 % 0.0 mm 0 W/m2
22:10 17.6 °C 14.7 °C 1014.4 hPa WNW 6.4 km/h 17.7 km/h 83 % 0.0 mm 0 W/m2
22:15 17.6 °C 14.6 °C 1014.8 hPa NW 9.7 km/h 14.5 km/h 83 % 0.0 mm 0 W/m2
22:20 17.6 °C 14.4 °C 1014.8 hPa WNW 9.7 km/h 17.7 km/h 82 % 0.0 mm 0 W/m2
22:25 17.6 °C 14.6 °C 1014.8 hPa WNW 8.0 km/h 17.7 km/h 83 % 0.0 mm 0 W/m2
22:30 17.5 °C 14.6 °C 1014.8 hPa NW 3.2 km/h 12.9 km/h 83 % 0.0 mm 0 W/m2
22:35 17.4 °C 14.5 °C 1014.8 hPa Calm   14.5 km/h 83 % 0.0 mm 0 W/m2
22:40 17.4 °C 14.5 °C 1015.1 hPa NW 8.0 km/h 14.5 km/h 83 % 0.0 mm 0 W/m2
22:50 17.4 °C 14.7 °C 1015.1 hPa WNW 3.2 km/h 12.9 km/h 84 % 0.0 mm 0 W/m2
23:00 17.4 °C 14.7 °C 1015.1 hPa WNW 4.8 km/h 12.9 km/h 84 % 0.0 mm 0 W/m2
23:05 17.4 °C 14.5 °C 1015.1 hPa Calm   12.9 km/h 83 % 0.0 mm 0 W/m2
23:10 17.4 °C 14.7 °C 1015.1 hPa WNW 1.6 km/h 11.3 km/h 84 % 0.0 mm 0 W/m2
23:15 17.4 °C 14.7 °C 1015.1 hPa WSW 6.4 km/h 11.3 km/h 84 % 0.0 mm 0 W/m2
23:20 17.4 °C 14.7 °C 1015.1 hPa Calm   9.7 km/h 84 % 0.0 mm 0 W/m2
23:25 17.4 °C 14.8 °C 1015.1 hPa NW 11.3 km/h 12.9 km/h 85 % 0.0 mm 0 W/m2
23:30 17.4 °C 14.9 °C 1014.8 hPa West 3.2 km/h 12.9 km/h 85 % 0.0 mm 0 W/m2
23:35 17.4 °C 14.9 °C 1014.8 hPa West 4.8 km/h 14.5 km/h 85 % 0.0 mm 0 W/m2
23:40 17.4 °C 14.9 °C 1015.1 hPa West 8.0 km/h 17.7 km/h 85 % 0.0 mm 0 W/m2
23:45 17.4 °C 14.9 °C 1015.1 hPa WSW 9.7 km/h 17.7 km/h 85 % 0.0 mm 0 W/m2
23:50 17.5 °C 15.1 °C 1015.1 hPa West 4.8 km/h 16.1 km/h 86 % 0.0 mm 0 W/m2
23:55 17.5 °C 15.1 °C 1014.8 hPa West 12.9 km/h 17.7 km/h 86 % 0.0 mm 0 W/m2
Avec l'autorisation de Weather Underground - 1.75 mb